Terminal Aerodrome Forecast
Issued by NWS

Home | Current Version | Previous Version | Graphics & Text | Print | Product List | Glossary On
Versions: 1 2 3 4 5 6 7 8 9 10 11 12 13 14 15 16 17 18 19 20 21 22 23 24 25 26 27 28 29 30 31 32 33 34 35 36 37 38 39 40 41 42
000
FTUS43 KGRB 221736
TAFATW
TAF
KATW 221736Z 2218/2318 22004KT 1/4SM -DZ FG OVC002
     FM222000 23004KT 3/4SM BR OVC003
     FM222300 29002KT 1/2SM FG BKN002
     FM230200 30002KT 1/4SM -DZ FG OVC002
     FM231500 32004KT 1/2SM FG OVC003
     FM231700 33005KT 3SM BR OVC006=

USA.gov is the U.S. government's official web portal to all federal, state and local government web resources and services.